createdAt,value
2019-03-31T00:00:16.799Z,1015.61
2019-03-31T00:01:16.822Z,1015.61
2019-03-31T00:02:16.859Z,1015.63
2019-03-31T00:03:17.034Z,1015.61
2019-03-31T00:04:16.852Z,1015.62
2019-03-31T00:05:16.871Z,1015.63
2019-03-31T00:06:16.882Z,1015.66
2019-03-31T00:07:16.887Z,1015.67
2019-03-31T00:08:16.899Z,1015.67
2019-03-31T00:09:16.930Z,1015.65
2019-03-31T00:10:17.028Z,1015.67
2019-03-31T00:11:16.939Z,1015.64
2019-03-31T00:12:17.367Z,1015.66
2019-03-31T00:13:16.969Z,1015.64
2019-03-31T00:14:16.986Z,1015.61
2019-03-31T00:15:16.992Z,1015.62
2019-03-31T00:16:17.010Z,1015.59
2019-03-31T00:17:17.022Z,1015.56
2019-03-31T00:18:17.034Z,1015.59
2019-03-31T00:19:17.061Z,1015.59
2019-03-31T00:20:17.051Z,1015.59
2019-03-31T00:21:17.062Z,1015.57
2019-03-31T00:22:17.078Z,1015.56
2019-03-31T00:23:17.098Z,1015.64
2019-03-31T00:24:17.112Z,1015.63
2019-03-31T00:25:17.127Z,1015.67
2019-03-31T00:26:17.133Z,1015.66
2019-03-31T00:27:17.139Z,1015.66
2019-03-31T00:28:17.168Z,1015.69
2019-03-31T00:29:17.173Z,1015.65
2019-03-31T00:30:17.180Z,1015.66
2019-03-31T00:31:22.336Z,1015.66
2019-03-31T00:32:17.230Z,1015.65
2019-03-31T00:33:17.220Z,1015.68
2019-03-31T00:34:17.287Z,1015.68
2019-03-31T00:35:17.562Z,1015.67
2019-03-31T00:36:17.274Z,1015.66
2019-03-31T00:37:17.285Z,1015.67
2019-03-31T00:38:17.286Z,1015.68
2019-03-31T00:39:17.292Z,1015.60
2019-03-31T00:40:17.320Z,1015.63
2019-03-31T00:41:17.383Z,1015.63
2019-03-31T00:45:17.372Z,1015.65
2019-03-31T00:46:17.379Z,1015.66
2019-03-31T00:47:17.393Z,1015.63
2019-03-31T00:48:17.414Z,1015.65
2019-03-31T00:49:17.433Z,1015.63
2019-03-31T00:50:17.435Z,1015.67
2019-03-31T00:51:17.450Z,1015.66
2019-03-31T00:52:17.457Z,1015.64
2019-03-31T00:53:17.472Z,1015.67
2019-03-31T00:54:17.488Z,1015.70
2019-03-31T00:55:17.499Z,1015.71
2019-03-31T00:56:17.514Z,1015.72
2019-03-31T00:57:17.518Z,1015.71
2019-03-31T00:58:17.542Z,1015.74
2019-03-31T00:59:17.546Z,1015.70
2019-03-31T01:00:17.557Z,1015.73
2019-03-31T01:01:17.568Z,1015.76
2019-03-31T01:02:17.581Z,1015.80
2019-03-31T01:03:17.604Z,1015.78
2019-03-31T01:04:17.612Z,1015.76
2019-03-31T01:05:17.625Z,1015.75
2019-03-31T01:06:17.642Z,1015.78
2019-03-31T01:07:17.721Z,1015.80
2019-03-31T01:08:17.666Z,1015.81
2019-03-31T01:09:17.678Z,1015.75
2019-03-31T01:10:17.694Z,1015.78
2019-03-31T01:11:17.697Z,1015.78
2019-03-31T01:12:17.707Z,1015.80
2019-03-31T01:13:17.732Z,1015.78
2019-03-31T01:14:17.732Z,1015.80
2019-03-31T01:15:17.748Z,1015.82
2019-03-31T01:16:17.769Z,1015.80
2019-03-31T01:17:19.075Z,1015.80
2019-03-31T01:18:17.792Z,1015.78
2019-03-31T01:19:17.988Z,1015.76
2019-03-31T01:20:17.851Z,1015.76
2019-03-31T01:21:17.817Z,1015.80
2019-03-31T01:22:17.827Z,1015.79
2019-03-31T01:23:17.847Z,1015.77
2019-03-31T01:24:17.856Z,1015.76
2019-03-31T01:25:17.870Z,1015.77
2019-03-31T01:26:17.882Z,1015.79
2019-03-31T01:27:17.892Z,1015.77
2019-03-31T01:28:17.909Z,1015.78
2019-03-31T01:29:17.918Z,1015.82
2019-03-31T01:30:17.934Z,1015.80
2019-03-31T01:31:17.945Z,1015.84
2019-03-31T01:32:17.959Z,1015.83
2019-03-31T01:33:17.974Z,1015.79
2019-03-31T01:34:17.993Z,1015.82
2019-03-31T01:35:17.988Z,1015.83
2019-03-31T01:36:18.059Z,1015.80
2019-03-31T01:37:20.173Z,1015.84
2019-03-31T01:38:18.045Z,1015.86
2019-03-31T01:39:18.064Z,1015.85
2019-03-31T01:40:18.061Z,1015.83
2019-03-31T01:41:18.065Z,1015.89
2019-03-31T01:42:18.140Z,1015.90
2019-03-31T01:43:18.193Z,1015.88
2019-03-31T01:44:18.114Z,1015.90
2019-03-31T01:46:18.211Z,1015.91
2019-03-31T01:47:18.216Z,1015.92
2019-03-31T01:48:18.151Z,1015.92
2019-03-31T01:49:18.169Z,1015.94
2019-03-31T01:50:18.184Z,1015.99
2019-03-31T01:51:18.200Z,1016.01
2019-03-31T01:52:18.209Z,1016.03
2019-03-31T01:53:18.219Z,1016.02
2019-03-31T01:54:18.233Z,1016.04
2019-03-31T01:55:18.238Z,1016.08
2019-03-31T01:56:18.254Z,1016.09
2019-03-31T01:57:18.271Z,1016.07
2019-03-31T01:58:18.283Z,1016.10
2019-03-31T01:59:18.295Z,1016.12
2019-03-31T02:00:18.302Z,1016.15
2019-03-31T02:01:18.314Z,1016.12
2019-03-31T02:02:18.327Z,1016.13
2019-03-31T02:03:18.377Z,1016.14
2019-03-31T02:05:18.363Z,1016.17
2019-03-31T02:06:18.547Z,1016.19
2019-03-31T02:07:18.419Z,1016.17
2019-03-31T02:08:18.399Z,1016.16
2019-03-31T02:09:18.410Z,1016.20
2019-03-31T02:10:18.438Z,1016.18
2019-03-31T02:11:18.670Z,1016.16
2019-03-31T02:12:18.458Z,1016.16
2019-03-31T02:13:18.463Z,1016.14
2019-03-31T02:14:18.479Z,1016.16
2019-03-31T02:15:18.494Z,1016.12
2019-03-31T02:16:18.513Z,1016.15
2019-03-31T02:17:18.873Z,1016.12
2019-03-31T02:18:18.537Z,1016.16
2019-03-31T02:19:18.534Z,1016.17
2019-03-31T02:20:18.554Z,1016.16
2019-03-31T02:21:18.559Z,1016.17
2019-03-31T02:22:18.573Z,1016.14
2019-03-31T02:23:18.585Z,1016.12
2019-03-31T02:24:18.596Z,1016.16
2019-03-31T02:25:18.616Z,1016.15
2019-03-31T02:26:18.622Z,1016.12
2019-03-31T02:27:18.636Z,1016.13
2019-03-31T02:28:18.654Z,1016.10
2019-03-31T02:29:18.665Z,1016.12
2019-03-31T02:30:18.679Z,1016.10
2019-03-31T02:31:18.703Z,1016.13
2019-03-31T02:32:24.310Z,1016.12
2019-03-31T02:33:18.717Z,1016.14
2019-03-31T02:34:18.723Z,1016.14
2019-03-31T02:35:18.746Z,1016.16
2019-03-31T02:36:18.745Z,1016.15
2019-03-31T02:37:18.758Z,1016.16
2019-03-31T02:38:18.779Z,1016.15
2019-03-31T02:39:18.788Z,1016.18
2019-03-31T02:40:18.793Z,1016.19
2019-03-31T02:41:18.962Z,1016.19
2019-03-31T02:42:19.323Z,1016.18
2019-03-31T02:43:18.886Z,1016.18
2019-03-31T02:44:18.863Z,1016.22
2019-03-31T02:45:18.861Z,1016.25
2019-03-31T02:46:18.867Z,1016.24
2019-03-31T02:47:18.960Z,1016.30
2019-03-31T02:48:18.904Z,1016.32
2019-03-31T02:49:18.948Z,1016.32
2019-03-31T02:50:18.920Z,1016.33
2019-03-31T02:51:18.930Z,1016.34
2019-03-31T02:52:18.946Z,1016.33
2019-03-31T02:53:18.957Z,1016.33
2019-03-31T02:54:18.970Z,1016.33
2019-03-31T02:55:18.993Z,1016.33
2019-03-31T02:56:18.992Z,1016.33
2019-03-31T02:57:19.008Z,1016.32
2019-03-31T02:58:19.052Z,1016.30
2019-03-31T02:59:19.038Z,1016.33
2019-03-31T03:00:19.055Z,1016.38
2019-03-31T03:01:19.095Z,1016.37
2019-03-31T03:02:19.073Z,1016.36
2019-03-31T03:03:19.080Z,1016.39
2019-03-31T03:04:19.088Z,1016.38
2019-03-31T03:05:20.369Z,1016.38
2019-03-31T03:06:19.109Z,1016.41
2019-03-31T03:07:19.125Z,1016.39
2019-03-31T03:08:19.146Z,1016.45
2019-03-31T03:09:19.146Z,1016.46
2019-03-31T03:10:19.160Z,1016.39
2019-03-31T03:11:19.179Z,1016.43
2019-03-31T03:12:19.186Z,1016.39
2019-03-31T03:13:19.201Z,1016.39
2019-03-31T03:14:19.211Z,1016.43
2019-03-31T03:15:19.259Z,1016.38
2019-03-31T03:16:19.548Z,1016.37
2019-03-31T03:17:19.258Z,1016.37
2019-03-31T03:18:19.275Z,1016.35
2019-03-31T03:19:19.278Z,1016.39
2019-03-31T03:20:19.377Z,1016.40
2019-03-31T03:21:23.688Z,1016.37
2019-03-31T03:22:19.307Z,1016.42
2019-03-31T03:23:19.322Z,1016.44
2019-03-31T03:24:19.330Z,1016.44
2019-03-31T03:25:19.342Z,1016.43
2019-03-31T03:26:19.362Z,1016.42
2019-03-31T03:27:19.367Z,1016.48
2019-03-31T03:28:19.381Z,1016.50
2019-03-31T03:29:19.414Z,1016.50
2019-03-31T03:30:19.480Z,1016.54
2019-03-31T03:31:19.476Z,1016.55
2019-03-31T03:32:19.443Z,1016.52
2019-03-31T03:34:19.452Z,1016.55
2019-03-31T03:35:19.515Z,1016.57
2019-03-31T03:36:19.488Z,1016.56
2019-03-31T03:37:19.489Z,1016.62
2019-03-31T03:38:19.503Z,1016.60
2019-03-31T03:39:19.512Z,1016.60
2019-03-31T03:40:19.526Z,1016.62
2019-03-31T03:41:19.531Z,1016.62
2019-03-31T03:42:19.545Z,1016.61
2019-03-31T03:43:19.557Z,1016.65
2019-03-31T03:44:19.585Z,1016.59
2019-03-31T03:45:19.588Z,1016.59
2019-03-31T03:46:19.695Z,1016.60
2019-03-31T03:47:19.630Z,1016.61
2019-03-31T03:48:19.793Z,1016.62
2019-03-31T03:49:19.831Z,1016.61
2019-03-31T03:50:19.689Z,1016.64
2019-03-31T03:51:19.657Z,1016.60
2019-03-31T03:52:19.688Z,1016.60
2019-03-31T03:53:19.672Z,1016.61
2019-03-31T03:54:19.686Z,1016.59
2019-03-31T03:55:20.061Z,1016.62
2019-03-31T03:56:19.714Z,1016.61
2019-03-31T03:57:19.723Z,1016.63
2019-03-31T03:58:19.744Z,1016.67
2019-03-31T03:59:19.751Z,1016.67
2019-03-31T04:00:19.766Z,1016.69
2019-03-31T04:01:19.782Z,1016.67
2019-03-31T04:02:19.785Z,1016.63
2019-03-31T04:03:30.164Z,1016.62
2019-03-31T04:04:19.816Z,1016.65
2019-03-31T04:05:19.830Z,1016.63
2019-03-31T04:06:19.828Z,1016.69
2019-03-31T04:07:19.851Z,1016.67
2019-03-31T04:08:19.957Z,1016.67
2019-03-31T04:09:19.864Z,1016.69
2019-03-31T04:10:19.873Z,1016.68
2019-03-31T04:11:21.522Z,1016.67
2019-03-31T04:12:19.933Z,1016.65
2019-03-31T04:13:19.916Z,1016.69
2019-03-31T04:14:19.922Z,1016.71
2019-03-31T04:15:19.934Z,1016.70
2019-03-31T04:16:19.943Z,1016.71
2019-03-31T04:17:19.964Z,1016.75
2019-03-31T04:18:19.996Z,1016.71
2019-03-31T04:19:20.345Z,1016.70
2019-03-31T04:20:20.059Z,1016.69
2019-03-31T04:21:20.025Z,1016.68
2019-03-31T04:22:20.018Z,1016.72
2019-03-31T04:23:20.029Z,1016.71
2019-03-31T04:24:20.046Z,1016.69
2019-03-31T04:25:20.160Z,1016.68
2019-03-31T04:26:20.064Z,1016.75
2019-03-31T04:27:20.070Z,1016.75
2019-03-31T04:28:20.097Z,1016.76
2019-03-31T04:29:20.100Z,1016.77
2019-03-31T04:30:20.107Z,1016.79
2019-03-31T04:31:20.118Z,1016.81
2019-03-31T04:32:20.129Z,1016.86
2019-03-31T04:33:20.200Z,1016.83
2019-03-31T04:34:20.169Z,1016.85
2019-03-31T04:35:20.167Z,1016.88
2019-03-31T04:36:20.179Z,1016.89
2019-03-31T04:37:20.197Z,1016.91
2019-03-31T04:38:20.200Z,1016.92
2019-03-31T04:39:20.231Z,1016.95
2019-03-31T04:40:20.232Z,1017.00
2019-03-31T04:41:20.238Z,1016.98
2019-03-31T04:42:20.246Z,1016.98
2019-03-31T04:43:20.256Z,1016.98
2019-03-31T04:44:20.271Z,1016.97
2019-03-31T04:45:20.282Z,1016.97
2019-03-31T04:46:20.293Z,1016.96
2019-03-31T04:47:20.314Z,1016.91
2019-03-31T04:50:20.652Z,1016.98
2019-03-31T04:51:21.013Z,1017.02
2019-03-31T04:52:20.612Z,1017.04
2019-03-31T04:53:20.374Z,1016.98
2019-03-31T04:54:20.385Z,1017.07
2019-03-31T04:55:20.398Z,1017.04
2019-03-31T04:57:20.829Z,1017.16
2019-03-31T04:58:20.430Z,1017.22
2019-03-31T04:59:20.439Z,1017.21
2019-03-31T05:00:20.451Z,1017.23
2019-03-31T05:01:20.465Z,1017.23
2019-03-31T05:02:20.482Z,1017.28
2019-03-31T05:03:20.484Z,1017.35
2019-03-31T05:04:20.501Z,1017.38
2019-03-31T05:05:20.510Z,1017.36
2019-03-31T05:06:20.528Z,1017.41
2019-03-31T05:07:20.542Z,1017.41
2019-03-31T05:08:20.808Z,1017.41
2019-03-31T05:09:20.619Z,1017.45
2019-03-31T05:10:20.570Z,1017.42
2019-03-31T05:11:20.581Z,1017.38
2019-03-31T05:12:20.596Z,1017.41
2019-03-31T05:13:20.736Z,1017.40
2019-03-31T05:14:20.628Z,1017.43
2019-03-31T05:15:20.630Z,1017.47
2019-03-31T05:16:20.640Z,1017.50
2019-03-31T05:17:20.686Z,1017.47
2019-03-31T05:18:20.737Z,1017.51
2019-03-31T05:19:20.977Z,1017.49
2019-03-31T05:20:20.869Z,1017.55
2019-03-31T05:21:20.710Z,1017.55
2019-03-31T05:22:20.705Z,1017.57
2019-03-31T05:23:20.716Z,1017.59
2019-03-31T05:24:20.734Z,1017.60
2019-03-31T05:25:20.740Z,1017.62
2019-03-31T05:26:20.750Z,1017.59
2019-03-31T05:27:20.771Z,1017.58
2019-03-31T05:28:20.801Z,1017.65
2019-03-31T05:29:20.837Z,1017.64
2019-03-31T05:30:20.828Z,1017.68
2019-03-31T05:31:20.823Z,1017.70
2019-03-31T05:32:20.817Z,1017.68
2019-03-31T05:33:20.837Z,1017.71
2019-03-31T05:34:20.845Z,1017.81
2019-03-31T05:36:20.868Z,1017.84
2019-03-31T05:37:20.921Z,1017.81
2019-03-31T05:38:21.144Z,1017.79
2019-03-31T05:39:20.891Z,1017.84
2019-03-31T05:40:20.903Z,1017.79
2019-03-31T05:41:20.916Z,1017.86
2019-03-31T05:42:20.934Z,1017.87
2019-03-31T05:43:20.936Z,1017.88
2019-03-31T05:44:20.953Z,1017.89
2019-03-31T05:45:21.015Z,1017.90
2019-03-31T05:46:21.182Z,1017.96
2019-03-31T05:47:21.034Z,1017.96
2019-03-31T05:48:21.067Z,1018.01
2019-03-31T05:49:21.750Z,1018.04
2019-03-31T05:50:21.072Z,1018.09
2019-03-31T05:51:21.030Z,1018.09
2019-03-31T05:52:21.086Z,1018.11
2019-03-31T05:53:21.073Z,1018.16
2019-03-31T05:54:21.060Z,1018.20
2019-03-31T05:55:21.069Z,1018.21
2019-03-31T05:56:21.087Z,1018.20
2019-03-31T05:57:21.100Z,1018.22
2019-03-31T05:58:21.113Z,1018.25
2019-03-31T05:59:21.120Z,1018.30
2019-03-31T06:00:21.137Z,1018.28
2019-03-31T06:01:21.147Z,1018.32
2019-03-31T06:02:21.218Z,1018.27
2019-03-31T06:03:21.178Z,1018.32
2019-03-31T06:04:32.600Z,1018.33
2019-03-31T06:05:21.182Z,1018.28
2019-03-31T06:06:21.195Z,1018.29
2019-03-31T06:07:21.206Z,1018.32
2019-03-31T06:08:21.215Z,1018.35
2019-03-31T06:09:21.227Z,1018.37
2019-03-31T06:10:21.238Z,1018.36
2019-03-31T06:11:21.258Z,1018.36
2019-03-31T06:12:21.258Z,1018.38
2019-03-31T06:13:21.271Z,1018.38
2019-03-31T06:14:21.283Z,1018.42
2019-03-31T06:15:21.293Z,1018.42
2019-03-31T06:16:21.303Z,1018.41
2019-03-31T06:17:21.323Z,1018.38
2019-03-31T06:18:21.358Z,1018.42
2019-03-31T06:19:21.336Z,1018.41
2019-03-31T06:20:21.348Z,1018.36
2019-03-31T06:21:21.372Z,1018.38
2019-03-31T06:22:21.579Z,1018.42
2019-03-31T06:23:21.398Z,1018.46
2019-03-31T06:24:21.395Z,1018.46
2019-03-31T06:25:21.412Z,1018.45
2019-03-31T06:26:21.418Z,1018.46
2019-03-31T06:27:21.429Z,1018.48
2019-03-31T06:28:21.898Z,1018.46
2019-03-31T06:29:21.777Z,1018.48
2019-03-31T06:30:21.468Z,1018.49
2019-03-31T06:31:21.505Z,1018.48
2019-03-31T06:32:21.486Z,1018.50
2019-03-31T06:33:21.506Z,1018.51
2019-03-31T06:34:21.513Z,1018.56
2019-03-31T06:35:21.518Z,1018.57
2019-03-31T06:36:21.538Z,1018.57
2019-03-31T06:37:21.544Z,1018.56
2019-03-31T06:38:21.555Z,1018.57
2019-03-31T06:39:21.570Z,1018.59
2019-03-31T06:40:21.579Z,1018.59
2019-03-31T06:41:21.588Z,1018.59
2019-03-31T06:42:21.602Z,1018.60
2019-03-31T06:43:21.618Z,1018.57
2019-03-31T06:44:21.625Z,1018.59
2019-03-31T06:45:21.632Z,1018.60
2019-03-31T06:46:21.715Z,1018.65
2019-03-31T06:48:21.800Z,1018.69
2019-03-31T06:49:21.679Z,1018.69
2019-03-31T06:50:21.692Z,1018.76
2019-03-31T06:51:21.703Z,1018.73
2019-03-31T06:52:21.776Z,1018.76
2019-03-31T06:53:21.747Z,1018.76
2019-03-31T06:54:21.748Z,1018.79
2019-03-31T06:55:21.746Z,1018.78
2019-03-31T06:56:21.763Z,1018.76
2019-03-31T06:58:21.792Z,1018.77
2019-03-31T06:59:21.799Z,1018.83
2019-03-31T07:00:21.803Z,1018.78
2019-03-31T07:01:21.926Z,1018.76
2019-03-31T07:02:21.828Z,1018.77
2019-03-31T07:03:21.842Z,1018.74
2019-03-31T07:04:21.888Z,1018.74
2019-03-31T07:05:21.863Z,1018.76
2019-03-31T07:06:21.927Z,1018.78
2019-03-31T07:07:23.769Z,1018.82
2019-03-31T07:08:21.903Z,1018.82
2019-03-31T07:09:21.906Z,1018.80
2019-03-31T07:10:21.919Z,1018.87
2019-03-31T07:11:21.928Z,1018.83
2019-03-31T07:12:21.944Z,1018.87
2019-03-31T07:13:21.958Z,1018.87
2019-03-31T07:14:21.970Z,1018.91
2019-03-31T07:15:21.978Z,1018.91
2019-03-31T07:16:21.987Z,1018.92
2019-03-31T07:17:21.997Z,1018.91
2019-03-31T07:18:22.030Z,1018.95
2019-03-31T07:19:22.030Z,1018.98
2019-03-31T07:20:22.032Z,1018.98
2019-03-31T07:21:22.051Z,1018.99
2019-03-31T07:22:24.389Z,1019.05
2019-03-31T07:23:22.069Z,1019.01
2019-03-31T07:24:22.077Z,1019.01
2019-03-31T07:25:22.101Z,1018.98
2019-03-31T07:26:22.134Z,1018.98
2019-03-31T07:27:22.113Z,1019.01
2019-03-31T07:28:22.141Z,1018.99
2019-03-31T07:29:22.154Z,1019.04
2019-03-31T07:30:22.155Z,1018.98
2019-03-31T07:31:22.167Z,1019.06
2019-03-31T07:32:22.181Z,1019.04
2019-03-31T07:33:22.187Z,1019.09
2019-03-31T07:34:22.209Z,1019.07
2019-03-31T07:35:22.210Z,1019.03
2019-03-31T07:36:22.222Z,1019.01
2019-03-31T07:37:22.251Z,1019.06
2019-03-31T07:38:22.492Z,1019.03
2019-03-31T07:39:22.380Z,1019.07
2019-03-31T07:40:22.592Z,1019.10
2019-03-31T07:41:22.438Z,1019.05
2019-03-31T07:42:22.327Z,1019.09
2019-03-31T07:43:22.307Z,1019.07
2019-03-31T07:44:22.319Z,1019.04
2019-03-31T07:45:22.350Z,1019.08
2019-03-31T07:46:22.342Z,1019.09
2019-03-31T07:47:22.357Z,1019.10
2019-03-31T07:48:22.373Z,1019.09
2019-03-31T07:49:22.383Z,1019.12
2019-03-31T07:50:22.392Z,1019.14
2019-03-31T07:51:22.409Z,1019.14
2019-03-31T07:52:22.416Z,1019.12
2019-03-31T07:53:22.426Z,1019.18
2019-03-31T07:54:22.443Z,1019.13
2019-03-31T07:55:22.449Z,1019.10
2019-03-31T07:56:22.467Z,1019.09
2019-03-31T07:57:22.475Z,1019.14
2019-03-31T07:58:22.495Z,1019.11
2019-03-31T07:59:22.675Z,1019.17
2019-03-31T08:00:22.570Z,1019.19
2019-03-31T08:01:22.528Z,1019.19
2019-03-31T08:02:22.548Z,1019.14
2019-03-31T08:03:22.551Z,1019.13
2019-03-31T08:04:22.573Z,1019.17
2019-03-31T08:05:33.068Z,1019.15
2019-03-31T08:06:22.615Z,1019.14
2019-03-31T08:07:22.603Z,1019.17
2019-03-31T08:08:22.613Z,1019.15
2019-03-31T08:09:22.684Z,1019.16
2019-03-31T08:10:22.636Z,1019.17
2019-03-31T08:11:23.405Z,1019.16
2019-03-31T08:12:23.215Z,1019.19
2019-03-31T08:13:22.669Z,1019.17
2019-03-31T08:14:22.682Z,1019.23
2019-03-31T08:15:22.700Z,1019.19
2019-03-31T08:16:22.708Z,1019.21
2019-03-31T08:17:22.725Z,1019.21
2019-03-31T08:18:22.743Z,1019.20
2019-03-31T08:19:22.760Z,1019.22
2019-03-31T08:20:22.757Z,1019.20
2019-03-31T08:21:22.773Z,1019.21
2019-03-31T08:22:22.788Z,1019.21
2019-03-31T08:23:22.799Z,1019.21
2019-03-31T08:24:22.815Z,1019.23
2019-03-31T08:25:22.834Z,1019.18
2019-03-31T08:26:22.833Z,1019.23
2019-03-31T08:27:22.843Z,1019.20
2019-03-31T08:28:22.855Z,1019.27
2019-03-31T08:29:22.875Z,1019.29
2019-03-31T08:30:22.903Z,1019.37
2019-03-31T08:31:22.898Z,1019.35
2019-03-31T08:32:22.906Z,1019.33
2019-03-31T08:33:22.924Z,1019.38
2019-03-31T08:34:22.952Z,1019.37
2019-03-31T08:35:22.940Z,1019.43
2019-03-31T08:36:22.970Z,1019.40
2019-03-31T08:37:23.033Z,1019.40
2019-03-31T08:38:24.518Z,1019.34
2019-03-31T08:39:23.059Z,1019.38
2019-03-31T08:40:23.016Z,1019.40
2019-03-31T08:41:23.023Z,1019.39
2019-03-31T08:42:23.081Z,1019.38
2019-03-31T08:43:23.371Z,1019.37
2019-03-31T08:44:23.066Z,1019.43
2019-03-31T08:45:23.070Z,1019.46
2019-03-31T08:46:23.083Z,1019.44
2019-03-31T08:47:23.088Z,1019.42
2019-03-31T08:48:23.101Z,1019.44
2019-03-31T08:49:23.121Z,1019.41
2019-03-31T08:50:23.125Z,1019.45
2019-03-31T08:51:23.144Z,1019.48
2019-03-31T08:52:23.158Z,1019.47
2019-03-31T08:53:23.160Z,1019.56
2019-03-31T08:54:23.178Z,1019.54
2019-03-31T08:55:23.221Z,1019.57
2019-03-31T08:56:23.202Z,1019.59
2019-03-31T08:57:23.223Z,1019.61
2019-03-31T08:58:23.229Z,1019.66
2019-03-31T08:59:23.240Z,1019.66
2019-03-31T09:00:23.254Z,1019.68
2019-03-31T09:01:23.263Z,1019.72
2019-03-31T09:02:23.341Z,1019.77
2019-03-31T09:03:23.298Z,1019.69
2019-03-31T09:04:23.338Z,1019.74
2019-03-31T09:05:23.489Z,1019.73
2019-03-31T09:06:23.320Z,1019.71
2019-03-31T09:07:23.332Z,1019.73
2019-03-31T09:08:23.410Z,1019.68
2019-03-31T09:09:23.490Z,1019.68
2019-03-31T09:10:24.041Z,1019.65
2019-03-31T09:11:23.387Z,1019.64
2019-03-31T09:12:23.395Z,1019.69
2019-03-31T09:13:23.422Z,1019.71
2019-03-31T09:14:23.433Z,1019.75
2019-03-31T09:15:23.436Z,1019.74
2019-03-31T09:16:23.454Z,1019.71
2019-03-31T09:17:23.459Z,1019.72
2019-03-31T09:18:23.486Z,1019.76
2019-03-31T09:19:23.488Z,1019.78
2019-03-31T09:20:23.513Z,1019.77
2019-03-31T09:21:23.520Z,1019.76
2019-03-31T09:22:23.632Z,1019.77
2019-03-31T09:23:23.560Z,1019.79
2019-03-31T09:24:23.586Z,1019.78
2019-03-31T09:25:23.607Z,1019.81
2019-03-31T09:26:23.715Z,1019.84
2019-03-31T09:27:23.637Z,1019.88
2019-03-31T09:28:23.599Z,1019.86
2019-03-31T09:29:23.619Z,1019.90
2019-03-31T09:30:23.642Z,1019.92
2019-03-31T09:31:23.649Z,1019.93
2019-03-31T09:32:23.662Z,1019.95
2019-03-31T09:33:23.725Z,1019.95
2019-03-31T09:34:24.041Z,1019.97
2019-03-31T09:35:23.689Z,1019.97
2019-03-31T09:36:23.701Z,1019.96
2019-03-31T09:37:23.721Z,1020.01
2019-03-31T09:38:23.734Z,1020.00
2019-03-31T09:39:23.782Z,1020.05
2019-03-31T09:40:23.754Z,1020.03
2019-03-31T09:41:23.772Z,1019.99
2019-03-31T09:42:23.781Z,1020.07
2019-03-31T09:43:23.798Z,1020.06
2019-03-31T09:44:23.821Z,1020.09
2019-03-31T09:45:23.811Z,1020.09
2019-03-31T09:46:23.822Z,1020.09
2019-03-31T09:47:23.835Z,1020.07
2019-03-31T09:48:23.841Z,1020.10
2019-03-31T09:49:23.871Z,1020.07
2019-03-31T09:50:23.869Z,1020.08
2019-03-31T09:51:23.885Z,1020.10
2019-03-31T09:52:23.897Z,1020.10
2019-03-31T09:53:23.909Z,1020.13
2019-03-31T09:54:23.923Z,1020.15
2019-03-31T09:55:23.934Z,1020.12
2019-03-31T09:56:23.945Z,1020.11
2019-03-31T09:57:23.966Z,1020.11
2019-03-31T09:58:23.972Z,1020.09
2019-03-31T09:59:23.983Z,1020.09
2019-03-31T10:00:23.995Z,1020.05
2019-03-31T10:01:24.017Z,1020.10
2019-03-31T10:02:24.027Z,1020.08
2019-03-31T10:03:24.068Z,1020.09
2019-03-31T10:04:24.044Z,1020.07
2019-03-31T10:05:24.057Z,1020.06
2019-03-31T10:06:30.003Z,1020.07
2019-03-31T10:07:24.085Z,1020.07
2019-03-31T10:09:24.401Z,1020.11
2019-03-31T10:10:24.152Z,1020.12
2019-03-31T10:11:24.142Z,1020.06
2019-03-31T10:12:24.197Z,1020.07
2019-03-31T10:13:24.214Z,1020.08
2019-03-31T10:14:24.199Z,1020.06
2019-03-31T10:15:24.215Z,1020.04
2019-03-31T10:16:24.218Z,1020.05
2019-03-31T10:17:24.213Z,1020.03
2019-03-31T10:18:24.243Z,1020.02
2019-03-31T10:19:24.236Z,1020.05
2019-03-31T10:20:24.253Z,1020.03
2019-03-31T10:21:24.260Z,1020.00
2019-03-31T10:22:24.279Z,1020.04
2019-03-31T10:23:24.288Z,1020.04
2019-03-31T10:24:24.447Z,1020.01
2019-03-31T10:25:24.320Z,1020.06
2019-03-31T10:26:31.823Z,1020.05
2019-03-31T10:27:24.341Z,1020.06
2019-03-31T10:28:24.356Z,1020.04
2019-03-31T10:29:24.366Z,1020.06
2019-03-31T10:30:24.395Z,1020.04
2019-03-31T10:31:24.390Z,1020.06
2019-03-31T10:32:24.408Z,1020.06
2019-03-31T10:33:24.413Z,1020.07
2019-03-31T10:34:24.432Z,1020.07
2019-03-31T10:35:24.519Z,1020.15
2019-03-31T10:36:24.460Z,1020.13
2019-03-31T10:37:24.467Z,1020.13
2019-03-31T10:38:24.477Z,1020.17
2019-03-31T10:39:24.769Z,1020.11
2019-03-31T10:41:24.625Z,1020.10
2019-03-31T10:42:24.537Z,1020.11
2019-03-31T10:43:24.543Z,1020.11
2019-03-31T10:44:24.556Z,1020.14
2019-03-31T10:45:24.571Z,1020.11
2019-03-31T10:46:24.584Z,1020.13
2019-03-31T10:47:24.594Z,1020.06
2019-03-31T10:48:24.607Z,1020.06
2019-03-31T10:49:24.624Z,1020.06
2019-03-31T10:50:24.630Z,1020.08
2019-03-31T10:51:24.643Z,1020.10
2019-03-31T10:52:24.657Z,1020.11
2019-03-31T10:53:24.762Z,1020.06
2019-03-31T10:54:24.689Z,1020.14
2019-03-31T10:55:24.697Z,1020.12
2019-03-31T10:56:24.721Z,1020.14
2019-03-31T10:57:24.721Z,1020.15
2019-03-31T10:58:24.741Z,1020.16
2019-03-31T10:59:24.745Z,1020.15
2019-03-31T11:00:24.762Z,1020.13
2019-03-31T11:01:24.781Z,1020.12
2019-03-31T11:02:24.785Z,1020.15
2019-03-31T11:03:24.801Z,1020.17
2019-03-31T11:04:24.814Z,1020.18
2019-03-31T11:05:24.828Z,1020.21
2019-03-31T11:06:24.891Z,1020.15
2019-03-31T11:07:24.943Z,1020.19
2019-03-31T11:08:24.860Z,1020.25
2019-03-31T11:11:25.264Z,1020.27
2019-03-31T11:13:26.402Z,1020.24
2019-03-31T11:14:24.942Z,1020.26
2019-03-31T11:15:24.958Z,1020.31
2019-03-31T11:16:24.968Z,1020.28
2019-03-31T11:17:25.026Z,1020.37
2019-03-31T11:18:25.205Z,1020.31
2019-03-31T11:19:25.031Z,1020.30
2019-03-31T11:20:25.018Z,1020.28
2019-03-31T11:21:25.035Z,1020.24
2019-03-31T11:22:25.047Z,1020.31
2019-03-31T11:23:25.054Z,1020.30
2019-03-31T11:24:25.068Z,1020.33
2019-03-31T11:25:29.092Z,1020.32
2019-03-31T11:26:25.097Z,1020.33
2019-03-31T11:27:25.108Z,1020.34
2019-03-31T11:28:25.120Z,1020.39
2019-03-31T11:29:25.143Z,1020.38
2019-03-31T11:30:25.147Z,1020.33
2019-03-31T11:31:25.166Z,1020.42
2019-03-31T11:32:25.165Z,1020.43
2019-03-31T11:33:25.180Z,1020.34
2019-03-31T11:34:25.193Z,1020.44
2019-03-31T11:35:25.211Z,1020.38
2019-03-31T11:36:25.214Z,1020.38
2019-03-31T11:38:25.256Z,1020.41
2019-03-31T11:39:25.367Z,1020.39
2019-03-31T11:40:25.281Z,1020.40
2019-03-31T11:41:25.292Z,1020.40
2019-03-31T11:42:25.799Z,1020.42
2019-03-31T11:43:25.302Z,1020.41
2019-03-31T11:44:27.830Z,1020.43
2019-03-31T11:45:25.453Z,1020.44
2019-03-31T11:46:25.368Z,1020.36
2019-03-31T11:47:25.354Z,1020.38
2019-03-31T11:48:25.361Z,1020.38
2019-03-31T11:49:25.379Z,1020.36
2019-03-31T11:50:25.386Z,1020.36
2019-03-31T11:51:25.467Z,1020.39
2019-03-31T11:52:25.433Z,1020.42
2019-03-31T11:53:25.425Z,1020.40
2019-03-31T11:54:25.499Z,1020.43
2019-03-31T11:55:25.458Z,1020.47
2019-03-31T11:56:25.462Z,1020.43
2019-03-31T11:57:25.485Z,1020.41
2019-03-31T11:58:25.490Z,1020.37
2019-03-31T11:59:25.502Z,1020.40
2019-03-31T12:00:25.517Z,1020.36
2019-03-31T12:01:25.532Z,1020.37
2019-03-31T12:02:27.252Z,1020.35
2019-03-31T12:03:25.586Z,1020.29
2019-03-31T12:04:25.572Z,1020.25
2019-03-31T12:05:25.582Z,1020.25
2019-03-31T12:06:25.590Z,1020.27
2019-03-31T12:07:28.324Z,1020.28
2019-03-31T12:08:25.921Z,1020.31
2019-03-31T12:09:25.872Z,1020.32
2019-03-31T12:10:26.083Z,1020.33
2019-03-31T12:11:26.053Z,1020.36
2019-03-31T12:12:25.912Z,1020.31
2019-03-31T12:13:25.825Z,1020.28
2019-03-31T12:14:25.723Z,1020.33
2019-03-31T12:15:25.739Z,1020.30
2019-03-31T12:16:25.827Z,1020.29
2019-03-31T12:17:25.772Z,1020.30
2019-03-31T12:18:25.772Z,1020.31
2019-03-31T12:19:25.760Z,1020.28
2019-03-31T12:20:25.802Z,1020.31
2019-03-31T12:21:26.531Z,1020.29
2019-03-31T12:22:25.850Z,1020.34
2019-03-31T12:23:25.861Z,1020.37